McChord AFB, Washington
Current Conditions -  °F | °C
As of 6:33 AM on Friday 28 Nov 2014 (Local Time) from KGRF Reporting Station
Drizzle Drizzle  
Wind Chill: 54°   Ceiling: 2900
Heat Index: 54°   Visibility: 10mi
Dew Point: 52°   Wind: 12mph
Humidity: 94%   Direction: 160°SSE
Pressure: 29.56"   Gusts: NA
Location:  47.1264°N, 122.555°W
Report Text: KGRF 281433Z AUTO 16010KT 10SM DZ SCT022 BKN029 BKN035 OVC085 12/11 A2956 RMK AO2 CIG 026V035
Loading
Personal Weather Stations






























Interactive Weather Map New forecast layout! Learn more

10-Day Weather Forecast

Advertisements
Track Severe Weather on mobile